FYLZ/LUD METAR and TAF weather

Enter ICAO airport designator
Station Type Date Time Source
FYLZ METAR 2019/10/15 06:00 UTC NOAA

FYLZ 150600Z AUTO 17003KT //// // ////// 24/02 Q1014


Station Type Date Time Source
FYLZ Decoded METAR 2019/10/15 06:00 UTC NOAA

Luderitz / Diaz Point, Namibia (FYLZ) 26-41S 015-15E
Oct 15, 2019 - 02:00 AM EDT / 2019.10.15 0600 UTC
Wind: from the S (170 degrees) at 3 MPH (3 KT):0
Temperature: 75 F (24 C)
Dew Point: 35 F (2 C)
Relative Humidity: 23%
Pressure (altimeter): 29.94 in. Hg (1014 hPa)
ob: FYLZ 150600Z AUTO 17003KT //// // ////// 24/02 Q1014
cycle: 6

Station Type Date Time Source
FYLZ TAF 2014/11/15 15:19 UTC NOAA

TAF FYLZ 151400Z 1515/1524 18015G28KT CAVOK
BECMG 1518/1520 16020KT

Example: see airport list